createdAt,value
2019-02-26T00:01:14.406Z,5.50
2019-02-26T00:03:41.847Z,5.50
2019-02-26T00:06:11.464Z,5.50
2019-02-26T00:08:41.115Z,5.50
2019-02-26T00:11:10.866Z,5.50
2019-02-26T00:13:40.361Z,5.50
2019-02-26T00:16:10.511Z,5.50
2019-02-26T00:18:39.599Z,5.50
2019-02-26T00:21:10.417Z,5.50
2019-02-26T00:23:41.637Z,5.50
2019-02-26T00:26:10.629Z,5.50
2019-02-26T00:28:41.473Z,5.50
2019-02-26T00:31:08.893Z,5.50
2019-02-26T00:33:38.626Z,5.50
2019-02-26T00:36:09.064Z,5.50
2019-02-26T00:38:39.861Z,5.40
2019-02-26T00:41:07.481Z,5.40
2019-02-26T00:43:37.146Z,5.40
2019-02-26T00:46:08.648Z,5.40
2019-02-26T00:48:38.850Z,5.40
2019-02-26T00:51:07.185Z,5.60
2019-02-26T00:53:36.792Z,5.50
2019-02-26T00:56:09.806Z,5.50
2019-02-26T00:58:39.296Z,5.50
2019-02-26T01:01:10.238Z,5.50
2019-02-26T01:03:37.834Z,5.50
2019-02-26T01:06:07.996Z,5.50
2019-02-26T01:08:38.005Z,5.40
2019-02-26T01:11:08.293Z,5.40
2019-02-26T01:13:36.276Z,5.40
2019-02-26T01:16:05.876Z,5.40
2019-02-26T01:18:35.461Z,5.40
2019-02-26T01:21:05.089Z,5.40
2019-02-26T01:23:35.280Z,5.40
2019-02-26T01:26:04.918Z,5.40
2019-02-26T01:28:34.489Z,5.40
2019-02-26T01:31:05.029Z,5.40
2019-02-26T01:33:40.619Z,5.40
2019-02-26T01:36:10.213Z,5.40
2019-02-26T01:38:41.754Z,5.40
2019-02-26T01:41:11.271Z,5.40
2019-02-26T01:43:41.660Z,5.40
2019-02-26T01:46:11.792Z,5.40
2019-02-26T01:48:43.350Z,5.40
2019-02-26T01:51:12.941Z,5.40
2019-02-26T01:53:44.442Z,5.40
2019-02-26T01:56:12.197Z,5.40
2019-02-26T01:58:41.785Z,5.40
2019-02-26T02:01:14.027Z,5.40
2019-02-26T02:03:41.057Z,5.40
2019-02-26T02:06:11.790Z,5.50
2019-02-26T02:08:43.393Z,5.40
2019-02-26T02:11:09.917Z,5.50
2019-02-26T02:13:41.358Z,5.40
2019-02-26T02:16:09.218Z,5.50
2019-02-26T02:18:38.794Z,5.40
2019-02-26T02:21:08.428Z,5.50
2019-02-26T02:23:38.013Z,5.50
2019-02-26T02:26:09.376Z,5.50
2019-02-26T02:28:37.732Z,5.50
2019-02-26T02:31:07.322Z,5.50
2019-02-26T02:33:37.528Z,5.50
2019-02-26T02:36:06.571Z,5.50
2019-02-26T02:38:37.148Z,5.50
2019-02-26T02:41:05.789Z,5.50
2019-02-26T02:43:35.369Z,5.50
2019-02-26T02:46:05.026Z,5.50
2019-02-26T02:48:34.655Z,5.50
2019-02-26T02:51:05.447Z,5.50
2019-02-26T02:53:33.889Z,5.50
2019-02-26T02:56:04.257Z,5.50
2019-02-26T02:58:33.115Z,5.50
2019-02-26T03:01:02.706Z,5.50
2019-02-26T03:03:32.520Z,5.50
2019-02-26T03:06:04.901Z,5.50
2019-02-26T03:08:32.354Z,5.50
2019-02-26T03:11:03.253Z,5.50
2019-02-26T03:13:32.861Z,5.50
2019-02-26T03:16:02.474Z,5.50
2019-02-26T03:18:32.079Z,5.50
2019-02-26T03:21:04.357Z,5.50
2019-02-26T03:23:33.383Z,5.50
2019-02-26T03:26:02.221Z,5.50
2019-02-26T03:28:34.893Z,5.50
2019-02-26T03:31:01.478Z,5.50
2019-02-26T03:33:32.255Z,5.50
2019-02-26T03:36:05.433Z,5.50
2019-02-26T03:38:32.821Z,5.50
2019-02-26T03:41:03.707Z,5.50
2019-02-26T03:43:33.925Z,5.50
2019-02-26T03:46:01.665Z,5.50
2019-02-26T03:48:31.333Z,5.40
2019-02-26T03:51:01.446Z,5.50
2019-02-26T03:53:31.335Z,5.50
2019-02-26T03:56:04.267Z,5.40
2019-02-26T03:58:29.804Z,5.40
2019-02-26T04:01:04.478Z,5.40
2019-02-26T04:03:29.654Z,5.40
2019-02-26T04:06:00.328Z,5.40
2019-02-26T04:08:30.762Z,5.40
2019-02-26T04:11:01.956Z,5.40
2019-02-26T04:13:30.068Z,5.40
2019-02-26T04:16:01.688Z,5.40
2019-02-26T04:18:29.408Z,5.40
2019-02-26T04:21:03.135Z,5.40
2019-02-26T04:23:29.836Z,5.40
2019-02-26T04:26:20.675Z,5.40
2019-02-26T04:28:54.339Z,5.40
2019-02-26T04:31:55.679Z,5.40
2019-02-26T04:35:50.123Z,5.40
2019-02-26T04:38:37.919Z,5.40
2019-02-26T04:41:17.552Z,5.40
2019-02-26T04:44:00.581Z,5.40
2019-02-26T04:46:34.340Z,5.40
2019-02-26T04:49:02.912Z,5.40
2019-02-26T04:51:36.086Z,5.40
2019-02-26T04:54:02.222Z,5.40
2019-02-26T04:56:36.016Z,5.40
2019-02-26T04:59:03.560Z,5.40
2019-02-26T05:01:31.293Z,5.40
2019-02-26T05:04:00.895Z,5.50
2019-02-26T05:06:30.493Z,5.50
2019-02-26T05:09:03.686Z,5.50
2019-02-26T05:11:35.810Z,5.50
2019-02-26T05:14:03.192Z,5.50
2019-02-26T05:16:35.216Z,5.50
2019-02-26T05:19:02.427Z,5.50
2019-02-26T05:21:34.946Z,5.50
2019-02-26T05:24:03.005Z,5.50
2019-02-26T05:26:31.605Z,5.60
2019-02-26T05:29:02.525Z,5.60
2019-02-26T05:31:33.072Z,5.50
2019-02-26T05:34:01.755Z,5.60
2019-02-26T05:36:33.696Z,5.60
2019-02-26T05:39:02.305Z,5.50
2019-02-26T05:41:31.981Z,5.60
2019-02-26T05:44:06.673Z,5.50
2019-02-26T05:46:32.419Z,5.50
2019-02-26T05:49:05.557Z,5.60
2019-02-26T05:51:36.031Z,5.60
2019-02-26T05:54:07.754Z,5.60
2019-02-26T05:56:34.076Z,5.60
2019-02-26T05:59:06.777Z,5.60
2019-02-26T06:01:33.022Z,5.60
2019-02-26T06:04:04.758Z,5.60
2019-02-26T06:06:32.268Z,5.60
2019-02-26T06:09:05.584Z,5.60
2019-02-26T06:11:35.700Z,5.60
2019-02-26T06:14:06.688Z,5.60
2019-02-26T06:16:32.141Z,5.60
2019-02-26T06:19:01.738Z,5.60
2019-02-26T06:21:33.890Z,5.70
2019-02-26T06:24:06.740Z,5.60
2019-02-26T06:26:40.647Z,5.60
2019-02-26T06:29:08.371Z,5.70
2019-02-26T06:31:40.099Z,5.70
2019-02-26T06:34:08.817Z,5.70
2019-02-26T06:36:37.190Z,5.70
2019-02-26T06:39:06.768Z,5.70
2019-02-26T06:41:39.580Z,5.80
2019-02-26T06:44:05.947Z,5.80
2019-02-26T06:46:38.296Z,5.80
2019-02-26T06:49:06.433Z,5.80
2019-02-26T06:51:36.057Z,5.80
2019-02-26T06:54:05.669Z,5.90
2019-02-26T06:56:40.774Z,5.90
2019-02-26T06:59:09.876Z,5.90
2019-02-26T07:01:41.989Z,5.90
2019-02-26T07:04:12.925Z,6.00
2019-02-26T07:06:40.392Z,6.00
2019-02-26T07:09:10.974Z,6.10
2019-02-26T07:11:39.654Z,6.10
2019-02-26T07:14:11.628Z,6.20
2019-02-26T07:16:41.228Z,6.20
2019-02-26T07:19:12.267Z,6.30
2019-02-26T07:21:42.886Z,6.30
2019-02-26T07:24:11.361Z,6.40
2019-02-26T07:26:43.063Z,6.40
2019-02-26T07:29:13.101Z,6.60
2019-02-26T07:31:40.601Z,6.80
2019-02-26T07:34:10.229Z,7.00
2019-02-26T07:36:41.094Z,7.30
2019-02-26T07:39:10.408Z,7.50
2019-02-26T07:41:39.565Z,7.70
2019-02-26T07:44:15.365Z,7.90
2019-02-26T07:46:42.470Z,8.10
2019-02-26T07:49:11.637Z,8.30
2019-02-26T07:51:42.905Z,8.50
2019-02-26T07:54:10.893Z,8.70
2019-02-26T07:56:40.503Z,8.80
2019-02-26T07:59:12.551Z,9.10
2019-02-26T08:01:44.723Z,9.30
2019-02-26T08:04:13.521Z,9.50
2019-02-26T08:06:42.778Z,9.70
2019-02-26T08:09:14.544Z,9.90
2019-02-26T08:11:43.790Z,10.00
2019-02-26T08:14:13.752Z,10.20
2019-02-26T08:16:41.289Z,10.40
2019-02-26T08:19:10.890Z,10.60
2019-02-26T08:21:40.472Z,10.90
2019-02-26T08:24:13.149Z,11.10
2019-02-26T08:26:45.185Z,11.20
2019-02-26T08:29:13.205Z,11.40
2019-02-26T08:31:46.657Z,11.60
2019-02-26T08:34:15.718Z,11.80
2019-02-26T08:36:46.818Z,12.00
2019-02-26T08:39:15.718Z,12.20
2019-02-26T08:41:56.957Z,12.40
2019-02-26T08:44:28.137Z,12.50
2019-02-26T08:46:56.253Z,12.60
2019-02-26T08:49:25.951Z,12.70
2019-02-26T08:51:55.554Z,12.90
2019-02-26T08:54:26.172Z,12.90
2019-02-26T08:56:55.994Z,13.10
2019-02-26T08:59:28.098Z,13.10
2019-02-26T09:01:57.702Z,13.30
2019-02-26T09:04:27.321Z,13.50
2019-02-26T09:06:57.647Z,13.60
2019-02-26T09:09:30.042Z,13.70
2019-02-26T09:11:58.887Z,13.70
2019-02-26T09:14:27.789Z,13.90
2019-02-26T09:16:57.783Z,14.10
2019-02-26T09:19:27.786Z,14.10
2019-02-26T09:21:56.180Z,14.10
2019-02-26T09:24:27.137Z,14.10
2019-02-26T09:26:57.437Z,14.10
2019-02-26T09:29:26.330Z,14.20
2019-02-26T09:31:55.985Z,14.10
2019-02-26T09:34:26.664Z,14.20
2019-02-26T09:36:57.700Z,14.20
2019-02-26T09:39:27.010Z,14.20
2019-02-26T09:41:57.006Z,14.30
2019-02-26T09:44:26.167Z,14.40
2019-02-26T09:46:58.340Z,14.50
2019-02-26T09:49:28.364Z,14.50
2019-02-26T09:51:59.059Z,14.60
2019-02-26T09:54:42.646Z,14.60
2019-02-26T09:57:11.297Z,14.60
2019-02-26T09:59:40.924Z,14.60
2019-02-26T10:02:12.953Z,14.50
2019-02-26T10:06:13.623Z,14.40
2019-02-26T10:08:41.450Z,14.30
2019-02-26T10:11:11.047Z,14.20
2019-02-26T10:13:41.913Z,14.10
2019-02-26T10:16:10.310Z,14.10
2019-02-26T10:18:40.017Z,14.10
2019-02-26T10:21:12.057Z,13.90
2019-02-26T10:23:39.391Z,13.80
2019-02-26T10:26:10.613Z,13.90
2019-02-26T10:28:42.734Z,14.10
2019-02-26T10:31:09.791Z,14.30
2019-02-26T10:33:41.116Z,14.30
2019-02-26T10:36:13.492Z,14.30
2019-02-26T10:38:40.977Z,14.20
2019-02-26T10:41:10.635Z,14.20
2019-02-26T10:43:40.273Z,14.10
2019-02-26T10:46:09.885Z,14.00
2019-02-26T10:48:41.629Z,14.00
2019-02-26T10:51:09.359Z,13.90
2019-02-26T10:53:38.977Z,13.80
2019-02-26T10:56:08.622Z,13.80
2019-02-26T10:58:38.224Z,13.80
2019-02-26T11:01:09.141Z,13.70
2019-02-26T11:03:43.469Z,13.70
2019-02-26T11:06:10.833Z,13.60
2019-02-26T11:08:39.305Z,13.50
2019-02-26T11:11:10.036Z,13.50
2019-02-26T11:13:40.708Z,13.50
2019-02-26T11:16:10.868Z,13.50
2019-02-26T11:18:42.536Z,13.60
2019-02-26T11:21:10.219Z,13.70
2019-02-26T11:23:41.605Z,13.80
2019-02-26T11:26:10.774Z,13.90
2019-02-26T11:28:43.580Z,13.90
2019-02-26T11:31:14.611Z,14.10
2019-02-26T11:33:43.384Z,14.30
2019-02-26T11:36:13.969Z,14.50
2019-02-26T11:38:44.617Z,14.80
2019-02-26T11:41:15.002Z,15.10
2019-02-26T11:43:45.742Z,15.30
2019-02-26T11:46:17.773Z,15.30
2019-02-26T11:48:47.586Z,15.10
2019-02-26T11:51:19.368Z,14.80
2019-02-26T11:53:46.702Z,14.60
2019-02-26T11:56:17.705Z,14.40
2019-02-26T11:58:46.049Z,14.20
2019-02-26T12:01:18.250Z,13.90
2019-02-26T12:03:47.841Z,13.50
2019-02-26T12:06:17.442Z,13.30
2019-02-26T12:08:47.893Z,12.90
2019-02-26T12:11:20.305Z,12.60
2019-02-26T12:13:50.219Z,12.30
2019-02-26T12:16:19.483Z,12.00
2019-02-26T12:18:50.435Z,11.80
2019-02-26T12:21:20.107Z,11.60
2019-02-26T12:23:49.708Z,11.50
2019-02-26T12:26:22.207Z,11.30
2019-02-26T12:28:48.962Z,11.20
2019-02-26T12:31:18.553Z,11.10
2019-02-26T12:33:48.174Z,11.10
2019-02-26T12:36:17.775Z,11.00
2019-02-26T12:38:50.124Z,10.90
2019-02-26T12:41:19.080Z,10.80
2019-02-26T12:43:47.012Z,10.80
2019-02-26T12:46:19.743Z,10.70
2019-02-26T12:48:50.184Z,10.70
2019-02-26T12:51:19.106Z,10.60
2019-02-26T12:53:49.843Z,10.60
2019-02-26T12:56:16.565Z,10.60
2019-02-26T12:58:48.479Z,10.60
2019-02-26T13:01:15.782Z,10.50
2019-02-26T13:03:49.650Z,10.50
2019-02-26T13:06:17.983Z,10.50
2019-02-26T13:08:47.115Z,10.50
2019-02-26T13:11:17.640Z,10.40
2019-02-26T13:13:45.314Z,10.40
2019-02-26T13:16:13.631Z,10.40
2019-02-26T13:18:44.692Z,10.40
2019-02-26T13:21:17.170Z,10.40
2019-02-26T13:23:44.397Z,10.40
2019-02-26T13:26:15.345Z,10.40
2019-02-26T13:31:17.909Z,10.30
2019-02-26T13:33:42.977Z,10.30
2019-02-26T13:36:14.448Z,10.30
2019-02-26T13:38:45.908Z,10.30
2019-02-26T13:41:28.887Z,10.20
2019-02-26T13:43:43.318Z,10.20
2019-02-26T13:46:13.129Z,10.20
2019-02-26T13:48:42.746Z,10.20
2019-02-26T13:51:12.349Z,10.20
2019-02-26T13:53:44.481Z,10.20
2019-02-26T13:56:14.258Z,10.20
2019-02-26T13:58:43.962Z,10.20
2019-02-26T14:01:13.592Z,10.20
2019-02-26T14:03:43.189Z,10.20
2019-02-26T14:06:12.920Z,10.20
2019-02-26T14:08:42.545Z,10.10
2019-02-26T14:11:13.415Z,10.20
2019-02-26T14:13:43.064Z,10.10
2019-02-26T14:16:12.678Z,10.10
2019-02-26T14:18:42.289Z,10.10
2019-02-26T14:21:11.951Z,10.00
2019-02-26T14:23:41.566Z,10.00
2019-02-26T14:26:11.195Z,10.00
2019-02-26T14:28:40.921Z,9.90
2019-02-26T14:31:11.882Z,9.90
2019-02-26T14:33:41.520Z,9.90
2019-02-26T14:36:13.544Z,9.90
2019-02-26T14:38:43.217Z,9.90
2019-02-26T14:41:15.321Z,9.90
2019-02-26T14:43:44.913Z,9.90
2019-02-26T14:46:14.554Z,9.80
2019-02-26T14:48:44.261Z,9.80
2019-02-26T14:51:13.900Z,9.80
2019-02-26T14:53:46.016Z,9.70
2019-02-26T14:56:15.671Z,9.70
2019-02-26T14:58:46.442Z,9.70
2019-02-26T15:01:16.033Z,9.70
2019-02-26T15:03:45.666Z,9.70
2019-02-26T15:06:15.660Z,9.70
2019-02-26T15:08:44.975Z,9.70
2019-02-26T15:11:14.565Z,9.70
2019-02-26T15:13:44.226Z,9.60
2019-02-26T15:16:13.826Z,9.60
2019-02-26T15:18:43.431Z,9.60
2019-02-26T15:21:13.077Z,9.60
2019-02-26T15:23:42.674Z,9.60
2019-02-26T15:26:12.285Z,9.50
2019-02-26T15:28:41.914Z,9.50
2019-02-26T15:31:13.905Z,9.60
2019-02-26T15:33:43.525Z,9.50
2019-02-26T15:36:13.141Z,9.50
2019-02-26T15:38:46.441Z,9.50
2019-02-26T15:41:16.109Z,9.50
2019-02-26T15:43:45.725Z,9.40
2019-02-26T15:46:17.953Z,9.40
2019-02-26T15:48:47.550Z,9.30
2019-02-26T15:51:19.858Z,9.30
2019-02-26T15:53:46.806Z,9.20
2019-02-26T15:56:16.510Z,9.20
2019-02-26T15:58:47.480Z,9.10
2019-02-26T16:01:17.087Z,9.00
2019-02-26T16:03:46.736Z,9.00
2019-02-26T16:06:17.821Z,9.00
2019-02-26T16:08:48.827Z,8.90
2019-02-26T16:11:19.348Z,8.90
2019-02-26T16:13:49.039Z,8.80
2019-02-26T16:16:19.853Z,8.80
2019-02-26T16:18:49.452Z,8.70
2019-02-26T16:21:21.489Z,8.70
2019-02-26T16:23:51.109Z,8.70
2019-02-26T16:26:20.773Z,8.60
2019-02-26T16:29:16.543Z,8.60
2019-02-26T16:31:45.477Z,8.60
2019-02-26T16:34:20.524Z,8.50
2019-02-26T16:36:52.448Z,8.50
2019-02-26T16:39:24.681Z,8.40
2019-02-26T16:41:51.669Z,8.40
2019-02-26T16:44:22.566Z,8.30
2019-02-26T16:46:51.055Z,8.30
2019-02-26T16:49:23.046Z,8.30
2019-02-26T16:51:54.926Z,8.20
2019-02-26T16:54:22.578Z,8.20
2019-02-26T16:56:54.523Z,8.10
2019-02-26T16:59:23.308Z,8.10
2019-02-26T17:01:55.597Z,8.00
2019-02-26T17:04:25.090Z,8.00
2019-02-26T17:06:54.765Z,7.90
2019-02-26T17:09:24.418Z,7.80
2019-02-26T17:11:54.061Z,7.80
2019-02-26T17:14:23.729Z,7.70
2019-02-26T17:16:53.334Z,7.70
2019-02-26T17:19:24.171Z,7.60
2019-02-26T17:21:53.764Z,7.60
2019-02-26T17:24:23.412Z,7.60
2019-02-26T17:26:53.025Z,7.50
2019-02-26T17:29:22.638Z,7.50
2019-02-26T17:31:53.517Z,7.50
2019-02-26T17:34:23.619Z,7.50
2019-02-26T17:36:52.717Z,7.40
2019-02-26T17:39:23.625Z,7.40
2019-02-26T17:41:54.438Z,7.40
2019-02-26T17:44:26.149Z,7.30
2019-02-26T17:46:56.247Z,7.20
2019-02-26T17:49:27.129Z,7.20
2019-02-26T17:51:56.761Z,7.20
2019-02-26T17:54:26.442Z,7.10
2019-02-26T17:56:57.625Z,7.10
2019-02-26T17:59:25.839Z,7.00
2019-02-26T18:01:55.473Z,7.00
2019-02-26T18:04:25.145Z,6.90
2019-02-26T18:06:57.815Z,6.90
2019-02-26T18:09:25.734Z,6.80
2019-02-26T18:11:55.513Z,6.80
2019-02-26T18:14:25.547Z,6.80
2019-02-26T18:16:55.165Z,6.80
2019-02-26T18:19:24.827Z,6.80
2019-02-26T18:21:54.455Z,6.70
2019-02-26T18:24:24.061Z,6.70
2019-02-26T18:26:53.685Z,6.70
2019-02-26T18:29:25.513Z,6.70
2019-02-26T18:31:55.477Z,6.70
2019-02-26T18:34:25.089Z,6.70
2019-02-26T18:36:54.756Z,6.80
2019-02-26T18:39:24.438Z,6.80
2019-02-26T18:41:54.129Z,6.80
2019-02-26T18:44:23.875Z,6.80
2019-02-26T18:46:54.721Z,6.80
2019-02-26T18:49:24.345Z,6.70
2019-02-26T18:51:55.181Z,6.70
2019-02-26T18:54:26.140Z,6.70
2019-02-26T18:56:56.001Z,6.70
2019-02-26T18:59:25.642Z,6.70
2019-02-26T19:01:55.290Z,6.60
2019-02-26T19:04:24.911Z,6.60
2019-02-26T19:06:54.547Z,6.60
2019-02-26T19:09:27.828Z,6.60
2019-02-26T19:11:58.461Z,6.50
2019-02-26T19:14:28.092Z,6.50
2019-02-26T19:16:57.803Z,6.50
2019-02-26T19:19:27.430Z,6.50
2019-02-26T19:21:58.911Z,6.50
2019-02-26T19:24:30.433Z,6.40
2019-02-26T19:27:00.042Z,6.40
2019-02-26T19:29:31.527Z,6.40
2019-02-26T19:31:59.341Z,6.40
2019-02-26T19:34:29.063Z,6.40
2019-02-26T19:36:59.878Z,6.40
2019-02-26T19:39:33.562Z,6.30
2019-02-26T19:41:59.555Z,6.30
2019-02-26T19:44:29.082Z,6.30
2019-02-26T19:46:58.758Z,6.20
2019-02-26T19:49:28.525Z,6.20
2019-02-26T19:52:00.288Z,6.20
2019-02-26T19:54:37.089Z,6.10
2019-02-26T19:57:06.778Z,6.10
2019-02-26T19:59:36.517Z,6.10
2019-02-26T20:02:06.136Z,6.10
2019-02-26T20:04:38.563Z,6.10
2019-02-26T20:07:09.107Z,6.10
2019-02-26T20:09:39.317Z,6.10
2019-02-26T20:12:10.028Z,6.10
2019-02-26T20:14:38.210Z,6.10
2019-02-26T20:17:14.703Z,6.10
2019-02-26T20:19:42.643Z,6.10
2019-02-26T20:22:12.284Z,6.10
2019-02-26T20:24:41.935Z,6.00
2019-02-26T20:27:11.799Z,6.00
2019-02-26T20:29:41.474Z,6.00
2019-02-26T20:32:15.304Z,6.00
2019-02-26T20:34:45.875Z,6.00
2019-02-26T20:37:18.011Z,6.00
2019-02-26T20:39:47.694Z,6.00
2019-02-26T20:42:17.366Z,5.90
2019-02-26T20:44:47.789Z,5.90
2019-02-26T20:47:17.593Z,5.90
2019-02-26T20:49:47.250Z,5.90
2019-02-26T20:52:18.805Z,5.90
2019-02-26T20:54:48.650Z,5.90
2019-02-26T20:57:19.569Z,5.90
2019-02-26T20:59:51.710Z,5.90
2019-02-26T21:02:19.438Z,5.90
2019-02-26T21:04:50.351Z,5.90
2019-02-26T21:07:21.831Z,5.80
2019-02-26T21:09:49.820Z,5.80
2019-02-26T21:12:19.474Z,5.80
2019-02-26T21:14:49.152Z,5.80
2019-02-26T21:17:18.797Z,5.80
2019-02-26T21:19:48.425Z,5.80
2019-02-26T21:22:19.791Z,5.80
2019-02-26T21:27:35.381Z,5.70
2019-02-26T21:30:06.811Z,5.70
2019-02-26T21:32:38.373Z,5.70
2019-02-26T21:35:08.045Z,5.70
2019-02-26T21:37:37.642Z,5.70
2019-02-26T21:40:08.789Z,5.60
2019-02-26T21:42:38.498Z,5.60
2019-02-26T21:45:18.955Z,5.60
2019-02-26T21:47:49.248Z,5.60
2019-02-26T21:50:22.131Z,5.60
2019-02-26T21:53:04.795Z,5.60
2019-02-26T21:55:19.162Z,5.60
2019-02-26T21:57:50.078Z,5.50
2019-02-26T22:00:20.337Z,5.60
2019-02-26T22:02:52.094Z,5.60
2019-02-26T22:05:20.318Z,5.50
2019-02-26T22:07:52.376Z,5.50
2019-02-26T22:10:20.885Z,5.50
2019-02-26T22:12:56.605Z,5.50
2019-02-26T22:15:22.618Z,5.50
2019-02-26T22:17:52.905Z,5.50
2019-02-26T22:20:35.927Z,5.40
2019-02-26T22:22:54.603Z,5.30
2019-02-26T22:25:26.721Z,5.30
2019-02-26T22:27:56.356Z,5.30
2019-02-26T22:30:26.702Z,5.30
2019-02-26T22:32:56.461Z,5.20
2019-02-26T22:35:26.493Z,5.20
2019-02-26T22:37:55.772Z,5.10
2019-02-26T22:40:28.941Z,5.10
2019-02-26T22:42:55.050Z,5.10
2019-02-26T22:45:27.700Z,5.10
2019-02-26T22:47:54.343Z,5.00
2019-02-26T22:50:24.848Z,5.10
2019-02-26T22:52:53.675Z,5.10
2019-02-26T22:55:23.323Z,5.10
2019-02-26T22:57:52.936Z,5.00
2019-02-26T23:00:34.796Z,5.00
2019-02-26T23:03:04.392Z,5.00
2019-02-26T23:05:34.017Z,5.00
2019-02-26T23:08:03.769Z,4.90
2019-02-26T23:10:33.378Z,4.90
2019-02-26T23:13:03.216Z,4.90
2019-02-26T23:15:32.995Z,4.80
2019-02-26T23:18:02.893Z,4.90
2019-02-26T23:20:32.760Z,4.90
2019-02-26T23:23:02.698Z,4.90
2019-02-26T23:25:33.614Z,4.90
2019-02-26T23:28:03.661Z,4.90
2019-02-26T23:30:34.789Z,4.90
2019-02-26T23:33:05.171Z,5.00
2019-02-26T23:35:35.120Z,5.00
2019-02-26T23:38:07.960Z,5.00
2019-02-26T23:40:34.353Z,5.00
2019-02-26T23:43:04.049Z,5.10
2019-02-26T23:45:33.681Z,5.10
2019-02-26T23:48:07.811Z,5.10
2019-02-26T23:50:32.917Z,5.10
2019-02-26T23:53:02.528Z,5.10
2019-02-26T23:55:32.130Z,5.10
2019-02-26T23:58:03.803Z,5.10
